VIV3195 MMMY-MMGL
Flight info
| Callsign | VIV3195 |
|---|---|
| Flight time | 1h 5m |
| Altitude | 36000 |
| Route | KERGA UT44 MEZCA |
| Aircraft | A21N/M-SDE1GIRWY/LB1 |
Departure
| Time | 2026-04-22 01:30 |
|---|---|
| Airport | Monterrey International Airport (MMMY) |
Arrival
| Time | 2026-04-22 02:35 |
|---|---|
| Airport | Guadalajara International Airport (MMGL) |
| Time | Latitude | Longitude | Altitude | Speed | Heading |
|---|---|---|---|---|---|
| 2026-04-22 01:02 | 25.78029 | -100.11787 | 1291 ft | 0 kts | 211° |
| 2026-04-22 01:18 | 25.78037 | -100.11782 | 1291 ft | 2 kts | 211° |
| 2026-04-22 01:18 | 25.78050 | -100.11774 | 1291 ft | 2 kts | 211° |
| 2026-04-22 01:18 | 25.78063 | -100.11765 | 1291 ft | 2 kts | 211° |
| 2026-04-22 01:18 | 25.78076 | -100.11756 | 1290 ft | 2 kts | 211° |
| 2026-04-22 01:19 | 25.78084 | -100.11751 | 1290 ft | 1 kts | 193° |
| 2026-04-22 01:19 | 25.78097 | -100.11754 | 1290 ft | 1 kts | 133° |
| 2026-04-22 01:19 | 25.78101 | -100.11760 | 1290 ft | 1 kts | 116° |
| 2026-04-22 01:19 | 25.78102 | -100.11764 | 1290 ft | 0 kts | 121° |
| 2026-04-22 01:22 | 25.78096 | -100.11752 | 1290 ft | 3 kts | 121° |
| 2026-04-22 01:22 | 25.78088 | -100.11738 | 1290 ft | 0 kts | 122° |
| 2026-04-22 01:22 | 25.78083 | -100.11729 | 1290 ft | 0 kts | 122° |
| 2026-04-22 01:23 | 25.78080 | -100.11723 | 1290 ft | 2 kts | 122° |
| 2026-04-22 01:23 | 25.78070 | -100.11693 | 1289 ft | 5 kts | 93° |
| 2026-04-22 01:23 | 25.78103 | -100.11651 | 1288 ft | 9 kts | 25° |
| 2026-04-22 01:24 | 25.78171 | -100.11677 | 1289 ft | 12 kts | 304° |
| 2026-04-22 01:24 | 25.78213 | -100.11750 | 1289 ft | 8 kts | 301° |
| 2026-04-22 01:24 | 25.78250 | -100.11798 | 1290 ft | 7 kts | 336° |
| 2026-04-22 01:24 | 25.78274 | -100.11799 | 1289 ft | 2 kts | 17° |
| 2026-04-22 01:25 | 25.78301 | -100.11786 | 1288 ft | 6 kts | 28° |
| 2026-04-22 01:25 | 25.78314 | -100.11777 | 1288 ft | 0 kts | 31° |
| 2026-04-22 01:28 | 25.78315 | -100.11777 | 1288 ft | 0 kts | 31° |
| 2026-04-22 01:28 | 25.78346 | -100.11756 | 1287 ft | 9 kts | 32° |
| 2026-04-22 01:28 | 25.78395 | -100.11708 | 1286 ft | 6 kts | 80° |
| 2026-04-22 01:29 | 25.78384 | -100.11669 | 1286 ft | 1 kts | 119° |
| 2026-04-22 01:29 | 25.78383 | -100.11668 | 1286 ft | 0 kts | 119° |
| 2026-04-22 01:29 | 25.78367 | -100.11638 | 1285 ft | 23 kts | 121° |
| 2026-04-22 01:29 | 25.78147 | -100.11235 | 1277 ft | 96 kts | 121° |
| 2026-04-22 01:30 | 25.77688 | -100.10396 | 1261 ft | 155 kts | 122° |
| 2026-04-22 01:30 | 25.77079 | -100.09275 | 1574 ft | 174 kts | 120° |
| 2026-04-22 01:30 | 25.76463 | -100.08136 | 2216 ft | 176 kts | 120° |
| 2026-04-22 01:30 | 25.75833 | -100.06998 | 2923 ft | 175 kts | 121° |
| 2026-04-22 01:31 | 25.75175 | -100.05809 | 3451 ft | 186 kts | 121° |
| 2026-04-22 01:31 | 25.74373 | -100.04627 | 3831 ft | 201 kts | 141° |
| 2026-04-22 01:31 | 25.72999 | -100.04119 | 4122 ft | 217 kts | 175° |
| 2026-04-22 01:31 | 25.71432 | -100.04118 | 4390 ft | 236 kts | 181° |
| 2026-04-22 01:32 | 25.69713 | -100.04164 | 4682 ft | 255 kts | 180° |
| 2026-04-22 01:32 | 25.67872 | -100.04172 | 5109 ft | 270 kts | 179° |
| 2026-04-22 01:32 | 25.65979 | -100.04137 | 5783 ft | 275 kts | 178° |
| 2026-04-22 01:32 | 25.64056 | -100.04075 | 6519 ft | 277 kts | 178° |
| 2026-04-22 01:33 | 25.62122 | -100.03996 | 7238 ft | 281 kts | 178° |
| 2026-04-22 01:33 | 25.60150 | -100.03905 | 7950 ft | 284 kts | 177° |
| 2026-04-22 01:33 | 25.58149 | -100.03805 | 8664 ft | 288 kts | 177° |
| 2026-04-22 01:33 | 25.56140 | -100.03703 | 9398 ft | 290 kts | 177° |
| 2026-04-22 01:34 | 25.54133 | -100.03599 | 10111 ft | 292 kts | 177° |
| 2026-04-22 01:34 | 25.52040 | -100.03489 | 10633 ft | 303 kts | 177° |
| 2026-04-22 01:34 | 25.49884 | -100.03375 | 11006 ft | 318 kts | 177° |
| 2026-04-22 01:34 | 25.47629 | -100.03256 | 11629 ft | 323 kts | 177° |
| 2026-04-22 01:35 | 25.45444 | -100.03140 | 12295 ft | 326 kts | 177° |
| 2026-04-22 01:35 | 25.43175 | -100.03020 | 12936 ft | 329 kts | 177° |
| 2026-04-22 01:35 | 25.40857 | -100.02896 | 13581 ft | 332 kts | 177° |
| 2026-04-22 01:35 | 25.38530 | -100.02773 | 14233 ft | 335 kts | 177° |
| 2026-04-22 01:36 | 25.36198 | -100.02649 | 14845 ft | 338 kts | 177° |
| 2026-04-22 01:36 | 25.33825 | -100.02522 | 15461 ft | 340 kts | 177° |
| 2026-04-22 01:36 | 25.31461 | -100.02397 | 16046 ft | 343 kts | 177° |
| 2026-04-22 01:36 | 25.29036 | -100.02268 | 16607 ft | 347 kts | 177° |
| 2026-04-22 01:37 | 25.26608 | -100.02139 | 17170 ft | 350 kts | 177° |
| 2026-04-22 01:37 | 25.24135 | -100.02008 | 17737 ft | 352 kts | 177° |
| 2026-04-22 01:37 | 25.21646 | -100.01875 | 18300 ft | 355 kts | 177° |
| 2026-04-22 01:37 | 25.19160 | -100.01743 | 18823 ft | 358 kts | 177° |
| 2026-04-22 01:38 | 25.16653 | -100.01611 | 19332 ft | 360 kts | 177° |
| 2026-04-22 01:38 | 25.14119 | -100.01475 | 19821 ft | 364 kts | 177° |
| 2026-04-22 01:38 | 25.11585 | -100.01341 | 20312 ft | 366 kts | 177° |
| 2026-04-22 01:38 | 25.09000 | -100.01203 | 20818 ft | 368 kts | 177° |
| 2026-04-22 01:39 | 25.06410 | -100.01065 | 21293 ft | 371 kts | 177° |
| 2026-04-22 01:39 | 25.03831 | -100.00928 | 21723 ft | 374 kts | 177° |
| 2026-04-22 01:39 | 25.01223 | -100.00790 | 22176 ft | 377 kts | 177° |
| 2026-04-22 01:39 | 24.98539 | -100.00647 | 22616 ft | 380 kts | 177° |
| 2026-04-22 01:40 | 24.95873 | -100.00710 | 22979 ft | 382 kts | 187° |
| 2026-04-22 01:40 | 24.93250 | -100.01421 | 23069 ft | 383 kts | 201° |
| 2026-04-22 01:40 | 24.90874 | -100.02719 | 23106 ft | 384 kts | 210° |
| 2026-04-22 01:40 | 24.88496 | -100.04273 | 23086 ft | 382 kts | 211° |
| 2026-04-22 01:41 | 24.86239 | -100.05770 | 23084 ft | 382 kts | 211° |
| 2026-04-22 01:41 | 24.83931 | -100.07296 | 23094 ft | 383 kts | 211° |
| 2026-04-22 01:41 | 24.81624 | -100.08814 | 23352 ft | 388 kts | 211° |
| 2026-04-22 01:41 | 24.79333 | -100.10317 | 23855 ft | 387 kts | 211° |
| 2026-04-22 01:42 | 24.77004 | -100.11840 | 24293 ft | 389 kts | 211° |
| 2026-04-22 01:42 | 24.74653 | -100.13375 | 24679 ft | 392 kts | 211° |
| 2026-04-22 01:42 | 24.72296 | -100.14914 | 25066 ft | 394 kts | 211° |
| 2026-04-22 01:42 | 24.69903 | -100.16472 | 25451 ft | 396 kts | 211° |
| 2026-04-22 01:43 | 24.67525 | -100.18021 | 25823 ft | 398 kts | 211° |
| 2026-04-22 01:43 | 24.65103 | -100.19597 | 26193 ft | 400 kts | 211° |
| 2026-04-22 01:43 | 24.62665 | -100.21182 | 26531 ft | 403 kts | 211° |
| 2026-04-22 01:43 | 24.60230 | -100.22765 | 26876 ft | 405 kts | 211° |
| 2026-04-22 01:44 | 24.57750 | -100.24377 | 27266 ft | 407 kts | 211° |
| 2026-04-22 01:44 | 24.55267 | -100.25990 | 27615 ft | 409 kts | 211° |
| 2026-04-22 01:44 | 24.52808 | -100.27586 | 27950 ft | 410 kts | 211° |
| 2026-04-22 01:44 | 24.50312 | -100.29205 | 28277 ft | 412 kts | 211° |
| 2026-04-22 01:45 | 24.47814 | -100.30825 | 28600 ft | 414 kts | 211° |
| 2026-04-22 01:45 | 24.45278 | -100.32468 | 28904 ft | 417 kts | 211° |
| 2026-04-22 01:45 | 24.42746 | -100.34109 | 29214 ft | 419 kts | 211° |
| 2026-04-22 01:45 | 24.40182 | -100.35770 | 29518 ft | 421 kts | 211° |
| 2026-04-22 01:46 | 24.34969 | -100.39143 | 29831 ft | 425 kts | 211° |
| 2026-04-22 01:46 | 24.32395 | -100.40808 | 30211 ft | 428 kts | 211° |
| 2026-04-22 01:46 | 24.29788 | -100.42493 | 30699 ft | 429 kts | 211° |
| 2026-04-22 01:47 | 24.27167 | -100.44186 | 31003 ft | 430 kts | 211° |
| 2026-04-22 01:47 | 24.24538 | -100.45884 | 31289 ft | 432 kts | 211° |
| 2026-04-22 01:47 | 24.21941 | -100.47560 | 31554 ft | 434 kts | 211° |
| 2026-04-22 01:47 | 24.19302 | -100.49262 | 31747 ft | 436 kts | 211° |
| 2026-04-22 01:48 | 24.14053 | -100.52646 | 32040 ft | 440 kts | 211° |
| 2026-04-22 01:48 | 24.11355 | -100.54384 | 32278 ft | 442 kts | 211° |
| 2026-04-22 01:48 | 24.08704 | -100.56090 | 32503 ft | 444 kts | 211° |
| 2026-04-22 01:49 | 24.06002 | -100.57828 | 32740 ft | 446 kts | 211° |
| 2026-04-22 01:49 | 24.03338 | -100.59543 | 32998 ft | 447 kts | 211° |
| 2026-04-22 01:49 | 24.00606 | -100.61298 | 33449 ft | 448 kts | 211° |
| 2026-04-22 01:49 | 23.97925 | -100.63021 | 33662 ft | 446 kts | 211° |
| 2026-04-22 01:50 | 23.95211 | -100.64764 | 33955 ft | 445 kts | 211° |
| 2026-04-22 01:50 | 23.92523 | -100.66499 | 34257 ft | 445 kts | 211° |
| 2026-04-22 01:50 | 23.89835 | -100.68238 | 34518 ft | 445 kts | 210° |
| 2026-04-22 01:50 | 23.87105 | -100.69994 | 34756 ft | 446 kts | 210° |
| 2026-04-22 01:51 | 23.84407 | -100.71722 | 34974 ft | 447 kts | 210° |
| 2026-04-22 01:51 | 23.81678 | -100.73467 | 35195 ft | 448 kts | 210° |
| 2026-04-22 01:51 | 23.78952 | -100.75210 | 35424 ft | 449 kts | 210° |
| 2026-04-22 01:51 | 23.76218 | -100.76959 | 35647 ft | 450 kts | 210° |
| 2026-04-22 01:52 | 23.73488 | -100.78703 | 35830 ft | 451 kts | 210° |
| 2026-04-22 01:52 | 23.70767 | -100.80442 | 35990 ft | 452 kts | 210° |
| 2026-04-22 01:52 | 23.65268 | -100.83955 | 36010 ft | 453 kts | 210° |
| 2026-04-22 01:53 | 23.59808 | -100.87437 | 36014 ft | 454 kts | 210° |
| 2026-04-22 01:53 | 23.54348 | -100.90918 | 36016 ft | 454 kts | 210° |
| 2026-04-22 01:54 | 23.49009 | -100.94656 | 36016 ft | 453 kts | 216° |
| 2026-04-22 01:54 | 23.43891 | -100.98717 | 36016 ft | 453 kts | 216° |
| 2026-04-22 01:55 | 23.38731 | -101.02820 | 36140 ft | 452 kts | 216° |
| 2026-04-22 01:55 | 23.33620 | -101.06875 | 36170 ft | 452 kts | 216° |
| 2026-04-22 01:56 | 23.28487 | -101.10941 | 36198 ft | 452 kts | 216° |
| 2026-04-22 01:56 | 23.23375 | -101.14986 | 36205 ft | 452 kts | 216° |
| 2026-04-22 01:57 | 23.18253 | -101.19036 | 36206 ft | 452 kts | 216° |
| 2026-04-22 01:57 | 23.13132 | -101.23080 | 36207 ft | 452 kts | 216° |
| 2026-04-22 01:58 | 23.08030 | -101.27106 | 36206 ft | 452 kts | 216° |
| 2026-04-22 01:58 | 23.02924 | -101.31130 | 36205 ft | 452 kts | 216° |
| 2026-04-22 01:59 | 22.97792 | -101.35172 | 36205 ft | 452 kts | 216° |
| 2026-04-22 01:59 | 22.92703 | -101.39175 | 36204 ft | 452 kts | 216° |
| 2026-04-22 02:00 | 22.87574 | -101.43199 | 36207 ft | 453 kts | 216° |
| 2026-04-22 02:00 | 22.82466 | -101.47189 | 36226 ft | 452 kts | 216° |
| 2026-04-22 02:01 | 22.77332 | -101.51206 | 36238 ft | 452 kts | 216° |
| 2026-04-22 02:01 | 22.72191 | -101.55234 | 36257 ft | 452 kts | 216° |
| 2026-04-22 02:02 | 22.67114 | -101.59208 | 36237 ft | 452 kts | 216° |
| 2026-04-22 02:02 | 22.61996 | -101.63213 | 36235 ft | 452 kts | 216° |
| 2026-04-22 02:03 | 22.56862 | -101.67238 | 36255 ft | 452 kts | 216° |
| 2026-04-22 02:03 | 22.51771 | -101.71238 | 36259 ft | 452 kts | 216° |
| 2026-04-22 02:04 | 22.44093 | -101.77229 | 36260 ft | 452 kts | 216° |
| 2026-04-22 02:05 | 22.38974 | -101.81216 | 36259 ft | 452 kts | 216° |
| 2026-04-22 02:05 | 22.33834 | -101.85223 | 36258 ft | 452 kts | 216° |
| 2026-04-22 02:06 | 22.28682 | -101.89232 | 36258 ft | 452 kts | 216° |
| 2026-04-22 02:06 | 22.23522 | -101.93239 | 36258 ft | 452 kts | 216° |
| 2026-04-22 02:07 | 22.18398 | -101.97215 | 36329 ft | 452 kts | 216° |
| 2026-04-22 02:07 | 22.13275 | -102.01186 | 36272 ft | 451 kts | 216° |
| 2026-04-22 02:08 | 22.08149 | -102.05154 | 36260 ft | 451 kts | 216° |
| 2026-04-22 02:08 | 22.05564 | -102.07154 | 36022 ft | 451 kts | 216° |
| 2026-04-22 02:08 | 22.03031 | -102.09112 | 35768 ft | 449 kts | 216° |
| 2026-04-22 02:08 | 22.00490 | -102.11076 | 35406 ft | 446 kts | 216° |
| 2026-04-22 02:09 | 21.97952 | -102.13037 | 34926 ft | 443 kts | 216° |
| 2026-04-22 02:09 | 21.95415 | -102.14959 | 34346 ft | 445 kts | 214° |
| 2026-04-22 02:09 | 21.92778 | -102.16820 | 33689 ft | 453 kts | 213° |
| 2026-04-22 02:09 | 21.90133 | -102.18666 | 33005 ft | 456 kts | 213° |
| 2026-04-22 02:10 | 21.87448 | -102.20529 | 32558 ft | 457 kts | 213° |
| 2026-04-22 02:10 | 21.84749 | -102.22396 | 32092 ft | 459 kts | 213° |
| 2026-04-22 02:10 | 21.82059 | -102.24262 | 31622 ft | 460 kts | 213° |
| 2026-04-22 02:10 | 21.79378 | -102.26123 | 31144 ft | 461 kts | 213° |
| 2026-04-22 02:11 | 21.76653 | -102.28019 | 30655 ft | 463 kts | 213° |
| 2026-04-22 02:11 | 21.73936 | -102.29909 | 30182 ft | 463 kts | 213° |
| 2026-04-22 02:11 | 21.71260 | -102.31831 | 29788 ft | 462 kts | 216° |
| 2026-04-22 02:11 | 21.68689 | -102.33910 | 29359 ft | 454 kts | 218° |
| 2026-04-22 02:12 | 21.66214 | -102.35990 | 28940 ft | 446 kts | 218° |
| 2026-04-22 02:12 | 21.63812 | -102.38020 | 28624 ft | 436 kts | 218° |
| 2026-04-22 02:12 | 21.61436 | -102.40029 | 28318 ft | 426 kts | 218° |
| 2026-04-22 02:12 | 21.59130 | -102.41977 | 27983 ft | 418 kts | 218° |
| 2026-04-22 02:13 | 21.56848 | -102.43899 | 27619 ft | 411 kts | 218° |
| 2026-04-22 02:13 | 21.54609 | -102.45789 | 27255 ft | 405 kts | 218° |
| 2026-04-22 02:13 | 21.52389 | -102.47659 | 26878 ft | 400 kts | 218° |
| 2026-04-22 02:13 | 21.50224 | -102.49482 | 26508 ft | 395 kts | 218° |
| 2026-04-22 02:14 | 21.48060 | -102.51303 | 26130 ft | 391 kts | 218° |
| 2026-04-22 02:14 | 21.45923 | -102.53100 | 25745 ft | 387 kts | 218° |
| 2026-04-22 02:14 | 21.43816 | -102.54871 | 25354 ft | 384 kts | 218° |
| 2026-04-22 02:14 | 21.41695 | -102.56654 | 24963 ft | 380 kts | 218° |
| 2026-04-22 02:15 | 21.39600 | -102.58414 | 24572 ft | 377 kts | 218° |
| 2026-04-22 02:15 | 21.37537 | -102.60146 | 24310 ft | 381 kts | 218° |
| 2026-04-22 02:15 | 21.35414 | -102.61928 | 24278 ft | 385 kts | 218° |
| 2026-04-22 02:15 | 21.33283 | -102.63715 | 24274 ft | 387 kts | 218° |
| 2026-04-22 02:16 | 21.31150 | -102.65505 | 24272 ft | 387 kts | 218° |
| 2026-04-22 02:16 | 21.28990 | -102.67328 | 24272 ft | 387 kts | 218° |
| 2026-04-22 02:16 | 21.26883 | -102.69107 | 24271 ft | 387 kts | 218° |
| 2026-04-22 02:16 | 21.24743 | -102.70905 | 24271 ft | 387 kts | 218° |
| 2026-04-22 02:17 | 21.22632 | -102.72675 | 24267 ft | 381 kts | 218° |
| 2026-04-22 02:17 | 21.20556 | -102.74412 | 24272 ft | 381 kts | 218° |
| 2026-04-22 02:17 | 21.18441 | -102.76183 | 24222 ft | 381 kts | 218° |
| 2026-04-22 02:17 | 21.16372 | -102.77909 | 23983 ft | 378 kts | 218° |
| 2026-04-22 02:18 | 21.14257 | -102.79667 | 23227 ft | 384 kts | 217° |
| 2026-04-22 02:18 | 21.11903 | -102.81082 | 22275 ft | 393 kts | 197° |
| 2026-04-22 02:18 | 21.09203 | -102.81399 | 21579 ft | 391 kts | 175° |
| 2026-04-22 02:18 | 21.06501 | -102.81008 | 21000 ft | 386 kts | 171° |
| 2026-04-22 02:19 | 21.03828 | -102.80572 | 20318 ft | 383 kts | 171° |
| 2026-04-22 02:19 | 21.01191 | -102.80156 | 19665 ft | 380 kts | 172° |
| 2026-04-22 02:19 | 20.98574 | -102.79760 | 19015 ft | 376 kts | 172° |
| 2026-04-22 02:19 | 20.95972 | -102.79363 | 18372 ft | 373 kts | 171° |
| 2026-04-22 02:20 | 20.93415 | -102.78952 | 17709 ft | 369 kts | 171° |
| 2026-04-22 02:20 | 20.90893 | -102.78541 | 17005 ft | 365 kts | 171° |
| 2026-04-22 02:20 | 20.88388 | -102.78135 | 16305 ft | 361 kts | 171° |
| 2026-04-22 02:20 | 20.85905 | -102.77736 | 15602 ft | 358 kts | 171° |
| 2026-04-22 02:21 | 20.83462 | -102.77344 | 14908 ft | 354 kts | 171° |
| 2026-04-22 02:21 | 20.81029 | -102.76955 | 14212 ft | 351 kts | 171° |
| 2026-04-22 02:21 | 20.78608 | -102.76566 | 13598 ft | 348 kts | 171° |
| 2026-04-22 02:21 | 20.76238 | -102.76186 | 13268 ft | 339 kts | 171° |
| 2026-04-22 02:22 | 20.73927 | -102.75816 | 13026 ft | 326 kts | 171° |
| 2026-04-22 02:22 | 20.71760 | -102.75323 | 12988 ft | 305 kts | 159° |
| 2026-04-22 02:22 | 20.69927 | -102.74301 | 12988 ft | 285 kts | 145° |
| 2026-04-22 02:22 | 20.68348 | -102.73068 | 12997 ft | 280 kts | 142° |
| 2026-04-22 02:23 | 20.66789 | -102.71796 | 12996 ft | 280 kts | 142° |
| 2026-04-22 02:23 | 20.65223 | -102.70521 | 12994 ft | 280 kts | 142° |
| 2026-04-22 02:23 | 20.63654 | -102.69254 | 12995 ft | 280 kts | 143° |
| 2026-04-22 02:23 | 20.61935 | -102.68299 | 12963 ft | 278 kts | 169° |
| 2026-04-22 02:24 | 20.60033 | -102.68450 | 12973 ft | 277 kts | 201° |
| 2026-04-22 02:24 | 20.58413 | -102.69597 | 12721 ft | 276 kts | 229° |
| 2026-04-22 02:24 | 20.57345 | -102.71287 | 12489 ft | 277 kts | 240° |
| 2026-04-22 02:24 | 20.56373 | -102.73099 | 12241 ft | 277 kts | 240° |
| 2026-04-22 02:25 | 20.55408 | -102.74864 | 11996 ft | 275 kts | 240° |
| 2026-04-22 02:25 | 20.54431 | -102.76608 | 11756 ft | 274 kts | 239° |
| 2026-04-22 02:25 | 20.53443 | -102.78338 | 11514 ft | 273 kts | 239° |
| 2026-04-22 02:25 | 20.52424 | -102.80104 | 11263 ft | 272 kts | 238° |
| 2026-04-22 02:26 | 20.51421 | -102.81832 | 11021 ft | 272 kts | 238° |
| 2026-04-22 02:26 | 20.50433 | -102.83530 | 10779 ft | 270 kts | 238° |
| 2026-04-22 02:26 | 20.49430 | -102.85248 | 10535 ft | 269 kts | 238° |
| 2026-04-22 02:26 | 20.48442 | -102.86938 | 10293 ft | 269 kts | 238° |
| 2026-04-22 02:27 | 20.47459 | -102.88621 | 10050 ft | 268 kts | 238° |
| 2026-04-22 02:27 | 20.46466 | -102.90318 | 9870 ft | 266 kts | 238° |
| 2026-04-22 02:27 | 20.45471 | -102.92018 | 9736 ft | 266 kts | 238° |
| 2026-04-22 02:27 | 20.44478 | -102.93716 | 9592 ft | 266 kts | 238° |
| 2026-04-22 02:28 | 20.43501 | -102.95383 | 9438 ft | 265 kts | 238° |
| 2026-04-22 02:28 | 20.42512 | -102.97075 | 9259 ft | 265 kts | 238° |
| 2026-04-22 02:28 | 20.41539 | -102.98737 | 9047 ft | 262 kts | 238° |
| 2026-04-22 02:28 | 20.40596 | -103.00352 | 8999 ft | 248 kts | 241° |
| 2026-04-22 02:29 | 20.40114 | -103.02042 | 8977 ft | 236 kts | 271° |
| 2026-04-22 02:29 | 20.40485 | -103.03732 | 9009 ft | 236 kts | 294° |
| 2026-04-22 02:29 | 20.41211 | -103.05306 | 9013 ft | 231 kts | 297° |
| 2026-04-22 02:29 | 20.41929 | -103.06786 | 8983 ft | 216 kts | 296° |
| 2026-04-22 02:30 | 20.42570 | -103.08179 | 8924 ft | 202 kts | 295° |
| 2026-04-22 02:30 | 20.43159 | -103.09523 | 8668 ft | 196 kts | 295° |
| 2026-04-22 02:30 | 20.43716 | -103.10836 | 8414 ft | 189 kts | 294° |
| 2026-04-22 02:30 | 20.44238 | -103.12090 | 8175 ft | 182 kts | 292° |
| 2026-04-22 02:31 | 20.44750 | -103.13324 | 7937 ft | 179 kts | 292° |
| 2026-04-22 02:31 | 20.45252 | -103.14542 | 7729 ft | 180 kts | 294° |
| 2026-04-22 02:31 | 20.45762 | -103.15775 | 7506 ft | 179 kts | 294° |
| 2026-04-22 02:31 | 20.46264 | -103.16981 | 7287 ft | 177 kts | 294° |
| 2026-04-22 02:32 | 20.46768 | -103.18191 | 7095 ft | 177 kts | 294° |
| 2026-04-22 02:32 | 20.47261 | -103.19372 | 6877 ft | 169 kts | 294° |
| 2026-04-22 02:32 | 20.47734 | -103.20506 | 6659 ft | 165 kts | 294° |
| 2026-04-22 02:32 | 20.48209 | -103.21623 | 6456 ft | 161 kts | 285° |
| 2026-04-22 02:33 | 20.48646 | -103.22662 | 6270 ft | 149 kts | 285° |
| 2026-04-22 02:33 | 20.49069 | -103.23664 | 6068 ft | 144 kts | 285° |
| 2026-04-22 02:33 | 20.49474 | -103.24643 | 5896 ft | 146 kts | 289° |
| 2026-04-22 02:33 | 20.49897 | -103.25655 | 5732 ft | 149 kts | 289° |
| 2026-04-22 02:34 | 20.50320 | -103.26666 | 5544 ft | 148 kts | 290° |
| 2026-04-22 02:34 | 20.50750 | -103.27686 | 5366 ft | 148 kts | 288° |
| 2026-04-22 02:34 | 20.51166 | -103.28694 | 5185 ft | 149 kts | 290° |
| 2026-04-22 02:34 | 20.51587 | -103.29688 | 5044 ft | 144 kts | 289° |
| 2026-04-22 02:35 | 20.51952 | -103.30568 | 5031 ft | 110 kts | 292° |
| 2026-04-22 02:35 | 20.52199 | -103.31149 | 5032 ft | 60 kts | 294° |
| 2026-04-22 02:35 | 20.52345 | -103.31448 | 5032 ft | 38 kts | 311° |
| 2026-04-22 02:35 | 20.52477 | -103.31570 | 5032 ft | 12 kts | 323° |
| 2026-04-22 02:36 | 20.52560 | -103.31589 | 5032 ft | 14 kts | 14° |
| 2026-04-22 02:36 | 20.52692 | -103.31528 | 5032 ft | 19 kts | 24° |
| 2026-04-22 02:36 | 20.52760 | -103.31486 | 5030 ft | 10 kts | 69° |
| 2026-04-22 02:36 | 20.52743 | -103.31407 | 5030 ft | 11 kts | 115° |
| 2026-04-22 02:37 | 20.52706 | -103.31322 | 5029 ft | 13 kts | 114° |